Time;durP1;ratioP1;P1;durP2;ratioP2;P2;SDS_P1;SDS_P2;PMS_P1;PMS_P2;Temp;Humidity;BMP_temperature;BMP_pressure;BME280_temperature;BME280_humidity;BME280_pressure;Samples;Min_cycle;Max_cycle;Signal;HPM_P1;HPM_P2
2022/11/27 00:01:33;;;;;;;59.20;20.10;;;0.90;99.90;;;;;;4786420;29;20214;-80
2022/11/27 00:04:01;;;;;;;51.37;19.20;;;1.00;99.90;;;;;;4786063;29;20694;-80
2022/11/27 00:06:29;;;;;;;49.20;19.17;;;1.10;99.90;;;;;;4786953;29;20238;-81
2022/11/27 00:08:58;;;;;;;53.17;19.90;;;1.30;99.90;;;;;;4790906;29;20264;-73
2022/11/27 00:11:27;;;;;;;57.57;19.83;;;1.40;99.90;;;;;;4789499;30;20264;-76
2022/11/27 00:13:54;;;;;;;53.67;20.60;;;1.40;99.90;;;;;;4790770;29;20207;-75
2022/11/27 00:16:22;;;;;;;53.20;19.53;;;1.40;99.90;;;;;;4790325;29;20239;-72
2022/11/27 00:18:50;;;;;;;54.37;20.40;;;1.30;99.90;;;;;;4789640;30;20254;-75
2022/11/27 00:21:25;;;;;;;58.37;20.30;;;1.40;99.90;;;;;;4790514;30;20215;-73
2022/11/27 00:23:54;;;;;;;57.97;20.17;;;1.40;99.90;;;;;;4789561;30;20200;-75
2022/11/27 00:26:22;;;;;;;63.30;22.57;;;1.40;99.90;;;;;;4789364;29;20203;-75
2022/11/27 00:28:49;;;;;;;64.03;21.80;;;1.30;99.90;;;;;;4786050;29;20216;-76
2022/11/27 00:31:21;;;;;;;60.97;21.20;;;1.20;99.90;;;;;;4772523;30;20331;-74
2022/11/27 00:33:48;;;;;;;54.70;20.03;;;1.20;99.90;;;;;;4772779;30;20237;-72
2022/11/27 00:36:15;;;;;;;52.83;19.80;;;1.40;99.90;;;;;;4790195;30;20204;-74
2022/11/27 00:38:42;;;;;;;56.87;20.23;;;1.50;99.90;;;;;;4774386;30;20207;-78
2022/11/27 00:41:21;;;;;;;58.23;21.07;;;1.50;99.90;;;;;;4774278;30;20203;-75
2022/11/27 00:43:48;;;;;;;63.47;22.43;;;1.50;99.90;;;;;;4774159;30;20208;-79
2022/11/27 00:46:16;;;;;;;66.57;23.33;;;1.50;99.90;;;;;;4773928;30;20204;-78
2022/11/27 00:48:44;;;;;;;67.23;22.53;;;1.50;99.90;;;;;;4774227;30;20210;-78
2022/11/27 00:51:15;;;;;;;63.30;22.07;;;1.50;99.90;;;;;;4774338;30;20584;-77
2022/11/27 00:53:43;;;;;;;68.00;24.20;;;1.50;99.90;;;;;;4790426;30;20203;-75
2022/11/27 00:56:20;;;;;;;74.23;24.83;;;1.30;99.90;;;;;;4789968;29;20610;-78
2022/11/27 00:58:47;;;;;;;63.47;23.30;;;1.40;99.90;;;;;;4777983;29;20202;-80
2022/11/27 01:01:26;;;;;;;64.90;23.53;;;1.30;99.90;;;;;;4791763;29;20276;-78
2022/11/27 01:03:55;;;;;;;70.40;25.47;;;1.30;99.90;;;;;;4777434;29;20256;-79
2022/11/27 01:06:23;;;;;;;69.20;24.60;;;1.30;99.90;;;;;;4791600;29;20207;-76
2022/11/27 01:08:50;;;;;;;69.50;25.33;;;1.40;99.90;;;;;;4791857;29;20199;-79
2022/11/27 01:11:20;;;;;;;65.57;23.87;;;1.40;99.90;;;;;;4791542;29;20240;-78
2022/11/27 01:13:48;;;;;;;68.57;24.77;;;1.40;99.90;;;;;;4807771;29;20196;-76
2022/11/27 01:16:21;;;;;;;69.10;23.73;;;1.40;99.90;;;;;;4791565;29;20710;-74
2022/11/27 01:18:50;;;;;;;61.77;23.37;;;1.40;99.90;;;;;;4806843;29;20276;-75
2022/11/27 01:21:19;;;;;;;64.23;23.20;;;1.40;99.90;;;;;;4791577;29;20214;-74
2022/11/27 01:23:47;;;;;;;61.83;23.07;;;1.30;99.90;;;;;;4791304;29;20222;-74
2022/11/27 01:26:16;;;;;;;66.63;24.57;;;1.40;99.90;;;;;;4791566;29;20199;-74
2022/11/27 01:28:44;;;;;;;65.93;24.87;;;1.40;99.90;;;;;;4788054;29;20683;-73
2022/11/27 01:31:18;;;;;;;73.27;25.13;;;1.40;99.90;;;;;;4773533;30;20292;-79
2022/11/27 01:33:46;;;;;;;71.60;24.83;;;1.30;99.90;;;;;;4789512;29;20577;-76
2022/11/27 01:36:14;;;;;;;63.80;23.97;;;1.40;99.90;;;;;;4773458;30;20203;-73
2022/11/27 01:38:42;;;;;;;68.53;24.70;;;1.50;99.90;;;;;;4773226;30;20216;-76
2022/11/27 01:41:21;;;;;;;70.70;24.83;;;1.50;99.90;;;;;;4773233;30;20208;-78
2022/11/27 01:43:53;;;;;;;71.50;25.10;;;1.50;99.90;;;;;;4773262;30;20308;-78
2022/11/27 01:46:20;;;;;;;84.53;27.97;;;1.50;99.90;;;;;;4788598;29;20233;-74
2022/11/27 01:48:47;;;;;;;73.90;25.57;;;1.50;99.90;;;;;;4790999;29;20211;-81
2022/11/27 01:51:14;;;;;;;75.53;25.63;;;1.50;99.90;;;;;;4791338;29;20233;-78
2022/11/27 01:53:41;;;;;;;70.77;26.03;;;1.50;99.90;;;;;;4806077;29;20203;-79
2022/11/27 01:56:09;;;;;;;79.43;27.07;;;1.50;99.90;;;;;;4791246;29;20214;-77
2022/11/27 01:58:37;;;;;;;77.60;27.17;;;1.50;99.90;;;;;;4791202;29;20330;-79
2022/11/27 02:01:04;;;;;;;69.50;25.43;;;1.50;99.90;;;;;;4790959;29;20654;-80
2022/11/27 02:03:32;;;;;;;68.70;25.83;;;1.40;99.90;;;;;;4805702;29;20214;-78
2022/11/27 02:05:59;;;;;;;73.93;26.57;;;1.50;99.90;;;;;;4790723;29;20290;-80
2022/11/27 02:08:26;;;;;;;74.63;25.53;;;1.40;99.90;;;;;;4807038;29;20198;-80
2022/11/27 02:11:03;;;;;;;69.17;25.00;;;1.40;99.90;;;;;;4790771;29;20321;-80
2022/11/27 02:13:42;;;;;;;69.20;24.77;;;1.30;99.90;;;;;;4807120;29;20206;-81
2022/11/27 02:16:18;;;;;;;69.77;24.80;;;1.30;99.90;;;;;;4790591;29;20219;-79
2022/11/27 02:19:02;;;;;;;65.03;25.57;;;1.10;99.90;;;;;;4790738;29;20207;-79
2022/11/27 02:21:40;;;;;;;71.10;25.00;;;1.20;99.90;;;;;;4790932;29;20264;-80
2022/11/27 02:24:09;;;;;;;66.47;23.37;;;1.10;99.90;;;;;;4790875;29;20210;-78
2022/11/27 02:26:51;;;;;;;66.40;24.73;;;1.10;99.90;;;;;;4806845;29;20222;-78
2022/11/27 02:29:28;;;;;;;67.07;25.33;;;1.20;99.90;;;;;;4806654;29;20192;-80
2022/11/27 02:32:03;;;;;;;65.30;25.23;;;1.10;99.90;;;;;;4790783;29;20556;-80
2022/11/27 02:34:44;;;;;;;66.13;24.10;;;0.90;99.90;;;;;;4790612;29;20257;-79
2022/11/27 02:37:33;;;;;;;75.33;26.73;;;1.10;99.90;;;;;;4790324;29;20580;-79
2022/11/27 02:40:08;;;;;;;76.47;26.63;;;1.20;99.90;;;;;;4790568;29;20628;-80
2022/11/27 02:42:41;;;;;;;74.10;26.60;;;1.20;99.90;;;;;;4790698;29;20216;-80
2022/11/27 02:45:15;;;;;;;73.17;27.37;;;1.10;99.90;;;;;;4790137;29;20207;-79
2022/11/27 02:47:45;;;;;;;78.37;27.60;;;1.30;99.90;;;;;;4790388;29;20202;-78
2022/11/27 02:50:18;;;;;;;70.40;26.53;;;1.20;99.90;;;;;;4790259;29;20276;-79
2022/11/27 02:52:47;;;;;;;68.77;26.90;;;1.30;99.90;;;;;;4805277;29;20647;-80
2022/11/27 02:55:19;;;;;;;74.33;26.20;;;1.20;99.90;;;;;;4789995;29;20198;-78
2022/11/27 02:57:47;;;;;;;70.30;26.17;;;1.20;99.90;;;;;;4804995;29;20204;-78
2022/11/27 03:00:15;;;;;;;86.80;27.80;;;1.20;99.90;;;;;;4790237;29;20635;-79
2022/11/27 03:02:47;;;;;;;76.47;26.70;;;1.20;99.90;;;;;;4789988;29;20235;-78
2022/11/27 03:05:19;;;;;;;74.33;26.23;;;1.10;99.90;;;;;;4789763;29;20236;-78
2022/11/27 03:08:06;;;;;;;68.90;26.77;;;1.20;99.90;;;;;;4806249;29;20236;-79
2022/11/27 03:10:59;;;;;;;71.97;27.10;;;1.20;99.90;;;;;;4804940;29;20231;-79
2022/11/27 03:13:27;;;;;;;71.17;26.30;;;1.20;99.90;;;;;;4790008;29;20655;-80
2022/11/27 03:16:28;;;;;;;70.57;26.47;;;1.20;99.90;;;;;;4775046;29;20294;-78
2022/11/27 03:19:23;;;;;;;73.77;26.40;;;1.20;99.90;;;;;;4806183;29;20203;-78
2022/11/27 03:21:57;;;;;;;71.57;25.63;;;1.20;99.90;;;;;;4804898;29;20219;-78
2022/11/27 03:24:25;;;;;;;73.33;26.63;;;1.10;99.90;;;;;;4806381;29;20553;-81
2022/11/27 03:26:53;;;;;;;74.57;26.80;;;1.10;99.90;;;;;;4789706;29;20293;-80
2022/11/27 03:29:25;;;;;;;72.77;26.33;;;1.10;99.90;;;;;;4789667;29;20199;-78
2022/11/27 03:31:52;;;;;;;73.70;25.90;;;1.10;99.90;;;;;;4789433;29;20251;-78
2022/11/27 03:34:19;;;;;;;76.80;26.97;;;1.20;99.90;;;;;;4805843;29;20587;-80
2022/11/27 03:36:46;;;;;;;74.93;27.83;;;1.20;99.90;;;;;;4805534;29;20202;-80
2022/11/27 03:39:13;;;;;;;76.17;26.47;;;1.30;99.90;;;;;;4789661;29;20288;-80
2022/11/27 03:41:59;;;;;;;79.63;27.80;;;1.30;99.90;;;;;;4791427;29;20603;-79
2022/11/27 03:44:48;;;;;;;76.57;27.43;;;1.20;99.90;;;;;;4793377;29;20670;-79
2022/11/27 03:47:27;;;;;;;73.73;26.73;;;1.20;99.90;;;;;;4793299;29;20246;-79
2022/11/27 03:50:17;;;;;;;77.47;27.63;;;1.10;99.90;;;;;;4793420;29;20631;-79
2022/11/27 03:53:20;;;;;;;75.83;26.07;;;1.10;99.90;;;;;;4808155;29;20215;-79
2022/11/27 03:55:54;;;;;;;79.50;26.70;;;1.00;99.90;;;;;;4735514;30;20223;-80
2022/11/27 03:58:45;;;;;;;77.23;27.33;;;1.00;99.90;;;;;;4735924;30;20695;-82
2022/11/27 04:01:15;;;;;;;77.00;27.50;;;1.10;99.90;;;;;;4721707;30;20202;-80
2022/11/27 04:03:43;;;;;;;84.73;27.53;;;1.10;99.90;;;;;;4735670;30;20332;-80
2022/11/27 04:06:10;;;;;;;82.50;27.57;;;1.00;99.90;;;;;;4735332;30;20346;-80
2022/11/27 04:08:39;;;;;;;87.10;27.67;;;1.10;99.90;;;;;;4736196;30;20220;-77
2022/11/27 04:11:07;;;;;;;81.33;28.27;;;1.20;99.90;;;;;;4735963;30;20745;-77
2022/11/27 04:13:34;;;;;;;75.07;25.10;;;1.20;99.90;;;;;;4736100;30;20236;-79
2022/11/27 04:16:01;;;;;;;79.87;27.23;;;1.20;99.90;;;;;;4735559;30;20219;-78
2022/11/27 04:18:29;;;;;;;75.70;27.60;;;1.20;99.90;;;;;;4720949;30;20206;-79
2022/11/27 04:20:56;;;;;;;81.00;26.97;;;1.20;99.90;;;;;;4735678;30;20203;-80
2022/11/27 04:23:23;;;;;;;78.03;27.13;;;1.30;99.90;;;;;;4735826;30;20293;-79
2022/11/27 04:25:50;;;;;;;80.00;26.67;;;1.50;99.90;;;;;;4735334;30;20211;-78
2022/11/27 04:28:17;;;;;;;70.57;25.27;;;1.40;99.90;;;;;;4735540;30;20661;-78
2022/11/27 04:30:49;;;;;;;76.53;26.13;;;1.30;99.90;;;;;;4751655;29;20276;-80
2022/11/27 04:33:16;;;;;;;80.07;27.60;;;1.30;99.90;;;;;;4808524;29;20223;-81
2022/11/27 04:35:43;;;;;;;77.27;27.00;;;1.30;99.90;;;;;;4789098;30;20227;-80
2022/11/27 04:38:10;;;;;;;76.50;26.30;;;1.30;99.90;;;;;;4789406;29;20630;-80
2022/11/27 04:40:37;;;;;;;80.90;26.53;;;1.20;99.90;;;;;;4790749;29;20257;-81
2022/11/27 04:43:04;;;;;;;73.93;27.23;;;1.20;99.90;;;;;;4789512;29;20594;-80
2022/11/27 04:45:30;;;;;;;76.40;26.80;;;1.20;99.90;;;;;;4789474;30;20193;-80
2022/11/27 04:47:57;;;;;;;77.30;26.67;;;1.30;99.90;;;;;;4789270;29;20215;-80
2022/11/27 04:50:24;;;;;;;74.50;26.07;;;1.20;99.90;;;;;;4773186;30;20246;-79
2022/11/27 04:52:51;;;;;;;74.57;26.10;;;1.20;99.90;;;;;;4789052;29;20322;-79
2022/11/27 04:55:18;;;;;;;77.53;26.43;;;1.10;99.90;;;;;;4788971;30;20288;-79
2022/11/27 04:57:45;;;;;;;75.67;26.10;;;1.00;99.90;;;;;;4790320;29;20217;-80
2022/11/27 05:00:12;;;;;;;71.77;24.43;;;1.00;99.90;;;;;;4789218;29;20208;-77
2022/11/27 05:02:39;;;;;;;76.83;25.17;;;1.10;99.90;;;;;;4788851;30;20215;-78
2022/11/27 05:05:07;;;;;;;78.97;25.53;;;1.10;99.90;;;;;;4803665;29;20568;-78
2022/11/27 05:07:33;;;;;;;68.20;25.30;;;1.20;99.90;;;;;;4789061;30;20207;-81
2022/11/27 05:10:00;;;;;;;73.47;25.93;;;1.20;99.90;;;;;;4790020;30;20204;-78
2022/11/27 05:12:27;;;;;;;71.03;25.33;;;1.10;99.90;;;;;;4789016;30;20232;-79
2022/11/27 05:14:54;;;;;;;73.57;26.13;;;1.20;99.90;;;;;;4789044;30;20577;-80
2022/11/27 05:17:21;;;;;;;69.70;25.23;;;1.20;99.90;;;;;;4804022;29;20216;-80
2022/11/27 05:19:48;;;;;;;75.47;25.33;;;1.30;99.90;;;;;;4789946;29;20674;-81
2022/11/27 05:22:14;;;;;;;81.13;26.83;;;1.20;99.90;;;;;;4788897;29;20211;-81
2022/11/27 05:24:41;;;;;;;73.60;25.67;;;1.20;99.90;;;;;;4788650;30;20655;-81
2022/11/27 05:27:09;;;;;;;65.10;25.60;;;1.20;99.90;;;;;;4789935;29;20250;-80
2022/11/27 05:29:35;;;;;;;69.37;24.70;;;1.10;99.90;;;;;;4790238;29;20206;-80
2022/11/27 05:32:02;;;;;;;74.50;25.93;;;1.10;99.90;;;;;;4789668;29;20227;-80
2022/11/27 05:34:29;;;;;;;76.10;26.40;;;1.10;99.90;;;;;;4788157;29;20602;-81
2022/11/27 05:36:56;;;;;;;79.87;26.10;;;1.10;99.90;;;;;;4803374;29;20218;-81
2022/11/27 05:39:23;;;;;;;71.00;24.97;;;1.10;99.90;;;;;;4789082;29;20196;-80
2022/11/27 05:41:50;;;;;;;74.87;25.30;;;1.10;99.90;;;;;;4803602;29;20197;-80
2022/11/27 05:44:17;;;;;;;66.43;25.10;;;1.20;99.90;;;;;;4788379;30;20207;-80
2022/11/27 05:46:44;;;;;;;69.63;24.73;;;1.20;99.90;;;;;;4788305;30;20680;-80
2022/11/27 05:49:12;;;;;;;69.53;25.83;;;1.30;99.90;;;;;;4789388;30;20614;-80
2022/11/27 05:51:40;;;;;;;72.97;25.63;;;1.40;99.90;;;;;;4789479;29;20653;-78
2022/11/27 05:54:09;;;;;;;74.60;25.67;;;1.40;99.90;;;;;;4788262;30;20298;-77
2022/11/27 05:56:36;;;;;;;74.83;26.57;;;1.50;99.90;;;;;;4788051;30;20212;-76
2022/11/27 05:59:03;;;;;;;71.60;25.70;;;1.40;99.90;;;;;;4788620;30;20193;-78
2022/11/27 06:01:33;;;;;;;67.07;25.10;;;1.50;99.90;;;;;;4788056;29;20210;-75
2022/11/27 06:04:00;;;;;;;71.37;25.53;;;1.40;99.90;;;;;;4788908;29;20239;-77
2022/11/27 06:06:27;;;;;;;71.63;25.77;;;1.50;99.90;;;;;;4788991;29;20244;-78
2022/11/27 06:08:53;;;;;;;71.30;26.33;;;1.60;99.90;;;;;;4787655;30;20274;-76
2022/11/27 06:11:21;;;;;;;75.90;26.10;;;1.60;99.90;;;;;;4789090;29;20238;-76
2022/11/27 06:13:49;;;;;;;70.70;26.50;;;1.60;99.90;;;;;;4789103;29;20618;-79
2022/11/27 06:16:21;;;;;;;81.47;27.83;;;1.50;99.90;;;;;;4788807;29;20680;-78
2022/11/27 06:18:53;;;;;;;78.73;26.30;;;1.60;99.90;;;;;;4787775;30;20209;-78
2022/11/27 06:21:21;;;;;;;72.90;25.37;;;1.60;99.90;;;;;;4787723;30;20217;-76
2022/11/27 06:23:48;;;;;;;74.53;26.00;;;1.60;99.90;;;;;;4788837;29;20219;-79
2022/11/27 06:26:19;;;;;;;79.93;26.47;;;1.60;99.90;;;;;;4787597;29;20227;-77
2022/11/27 06:28:47;;;;;;;72.10;26.07;;;1.60;99.90;;;;;;4788949;29;20211;-78
2022/11/27 06:31:17;;;;;;;81.07;27.43;;;1.60;99.90;;;;;;4787412;30;20224;-79
2022/11/27 06:33:45;;;;;;;85.77;27.47;;;1.60;99.90;;;;;;4788562;29;20210;-79
2022/11/27 06:36:12;;;;;;;72.70;26.27;;;1.60;99.90;;;;;;4805598;29;20216;-77
2022/11/27 06:38:39;;;;;;;76.23;26.30;;;1.70;99.90;;;;;;4805538;29;20230;-76
2022/11/27 06:41:12;;;;;;;79.73;26.90;;;1.70;99.90;;;;;;4806663;29;20203;-77
2022/11/27 06:43:39;;;;;;;73.73;25.70;;;1.70;99.90;;;;;;4790372;29;20206;-77
2022/11/27 06:46:10;;;;;;;78.97;26.13;;;1.80;99.90;;;;;;4806573;29;20647;-79
2022/11/27 06:48:37;;;;;;;78.40;26.77;;;1.70;99.90;;;;;;4806408;29;20674;-79
2022/11/27 06:51:05;;;;;;;76.67;26.20;;;1.80;99.90;;;;;;4790348;29;20210;-79
2022/11/27 06:53:35;;;;;;;82.27;27.23;;;1.60;99.90;;;;;;4790184;29;20210;-79
2022/11/27 06:56:03;;;;;;;74.83;25.77;;;1.60;99.90;;;;;;4790367;29;20216;-78
2022/11/27 06:58:30;;;;;;;80.00;27.17;;;1.70;99.90;;;;;;4805090;29;20648;-79
2022/11/27 07:00:58;;;;;;;84.53;27.53;;;1.60;99.90;;;;;;4790341;29;20204;-79
2022/11/27 07:03:26;;;;;;;74.33;26.63;;;1.70;99.90;;;;;;4806107;29;20237;-79
2022/11/27 07:05:53;;;;;;;77.97;27.20;;;1.60;99.90;;;;;;4804901;29;20231;-79
2022/11/27 07:08:21;;;;;;;81.87;27.40;;;1.60;99.90;;;;;;4790382;29;20196;-79
2022/11/27 07:10:48;;;;;;;80.43;26.30;;;1.60;99.90;;;;;;4806291;29;20203;-79
2022/11/27 07:13:15;;;;;;;75.83;26.83;;;1.70;99.90;;;;;;4790026;29;20248;-79
2022/11/27 07:15:42;;;;;;;70.87;24.93;;;1.70;99.90;;;;;;4788929;29;20579;-79
2022/11/27 07:18:09;;;;;;;73.53;26.63;;;1.70;99.90;;;;;;4790113;29;20211;-79
2022/11/27 07:20:36;;;;;;;74.20;25.60;;;1.80;99.90;;;;;;4806391;29;20534;-79
2022/11/27 07:23:03;;;;;;;74.40;26.17;;;1.80;99.90;;;;;;4806192;29;20207;-79
2022/11/27 07:25:29;;;;;;;77.80;26.23;;;1.70;99.90;;;;;;4789768;29;20204;-80
2022/11/27 07:27:56;;;;;;;73.60;26.00;;;1.80;99.90;;;;;;4806058;29;20363;-77
2022/11/27 07:30:23;;;;;;;79.80;27.07;;;1.80;99.90;;;;;;4789784;29;20207;-77
2022/11/27 07:32:50;;;;;;;72.03;25.83;;;1.80;99.90;;;;;;4789602;29;20586;-78
2022/11/27 07:35:17;;;;;;;75.10;26.07;;;1.70;99.90;;;;;;4786394;30;20269;-78
2022/11/27 07:37:44;;;;;;;78.17;27.67;;;1.80;99.90;;;;;;4788206;30;20233;-78
2022/11/27 07:40:11;;;;;;;73.20;26.80;;;1.70;99.90;;;;;;4786768;30;20214;-76
2022/11/27 07:42:40;;;;;;;74.00;27.47;;;1.80;99.90;;;;;;4801710;29;20212;-76
2022/11/27 07:45:08;;;;;;;80.00;26.77;;;1.80;99.90;;;;;;4786446;30;20211;-76
2022/11/27 07:47:35;;;;;;;76.33;26.47;;;1.80;99.90;;;;;;4786648;30;20208;-77
2022/11/27 07:50:04;;;;;;;74.10;25.30;;;1.80;99.90;;;;;;4786620;29;20203;-76
2022/11/27 07:52:33;;;;;;;75.80;26.40;;;1.80;99.90;;;;;;4786871;30;20273;-78
2022/11/27 07:55:07;;;;;;;78.47;26.43;;;2.00;99.90;;;;;;4786563;30;20210;-76
2022/11/27 07:57:34;;;;;;;78.77;27.50;;;2.00;99.90;;;;;;4786602;30;20208;-76
2022/11/27 08:00:03;;;;;;;74.80;26.20;;;1.90;99.90;;;;;;4786775;30;20208;-77
2022/11/27 08:02:29;;;;;;;74.07;26.93;;;1.80;99.90;;;;;;4786499;30;20200;-76
2022/11/27 08:04:56;;;;;;;77.10;26.57;;;1.90;99.90;;;;;;4786154;30;20266;-76
2022/11/27 08:07:28;;;;;;;74.60;27.43;;;1.90;99.90;;;;;;4786516;30;20731;-77
2022/11/27 08:09:58;;;;;;;76.70;26.30;;;1.90;99.90;;;;;;4786510;30;20203;-78
2022/11/27 08:12:26;;;;;;;82.87;28.10;;;1.90;99.90;;;;;;4787744;29;20220;-76
2022/11/27 08:14:52;;;;;;;81.57;28.27;;;1.90;99.90;;;;;;4786422;30;20207;-77
2022/11/27 08:17:19;;;;;;;76.00;26.43;;;1.90;99.90;;;;;;4786488;29;20220;-76
2022/11/27 08:19:46;;;;;;;81.93;28.60;;;1.90;99.90;;;;;;4787786;29;20196;-76
2022/11/27 08:22:15;;;;;;;79.63;28.37;;;1.90;99.90;;;;;;4786461;30;20256;-78
2022/11/27 08:24:42;;;;;;;75.17;27.00;;;1.90;99.90;;;;;;4786470;30;20682;-78
2022/11/27 08:27:09;;;;;;;80.97;29.43;;;1.90;99.90;;;;;;4788285;29;20291;-78
2022/11/27 08:29:37;;;;;;;80.33;28.57;;;2.00;99.90;;;;;;4789679;30;20650;-77
2022/11/27 08:32:04;;;;;;;83.20;28.17;;;2.10;99.90;;;;;;4789581;30;20228;-79
2022/11/27 08:34:32;;;;;;;92.63;28.07;;;2.10;99.90;;;;;;4789140;29;20239;-79
2022/11/27 08:36:59;;;;;;;82.33;27.40;;;2.20;99.90;;;;;;4789498;29;20648;-78
2022/11/27 08:39:26;;;;;;;80.13;28.07;;;2.20;99.90;;;;;;4790843;29;20200;-79
2022/11/27 08:41:53;;;;;;;80.17;28.17;;;2.10;99.90;;;;;;4789528;30;20666;-80
2022/11/27 08:44:20;;;;;;;80.77;27.63;;;2.20;99.90;;;;;;4804367;29;20578;-80
2022/11/27 08:46:47;;;;;;;88.37;29.60;;;2.20;99.90;;;;;;4789228;30;20204;-79
2022/11/27 08:49:14;;;;;;;82.50;27.90;;;2.20;99.90;;;;;;4789453;29;20211;-79
2022/11/27 08:51:41;;;;;;;74.27;27.87;;;2.30;99.90;;;;;;4789470;30;20189;-80
2022/11/27 08:54:08;;;;;;;79.07;27.57;;;2.40;99.90;;;;;;4790553;29;20617;-79
2022/11/27 08:56:35;;;;;;;83.93;27.73;;;2.30;99.90;;;;;;4789543;29;20201;-77
2022/11/27 08:59:02;;;;;;;75.93;28.33;;;2.40;99.90;;;;;;4789363;29;20213;-76
2022/11/27 09:01:31;;;;;;;85.63;29.50;;;2.30;99.90;;;;;;4789634;30;20209;-76
2022/11/27 09:03:58;;;;;;;83.33;28.23;;;2.20;99.90;;;;;;4789103;29;20203;-79
2022/11/27 09:06:30;;;;;;;87.20;29.13;;;2.30;99.90;;;;;;4790421;29;20227;-76
2022/11/27 09:08:59;;;;;;;85.90;29.37;;;2.30;99.90;;;;;;4804007;29;20204;-77
2022/11/27 09:11:27;;;;;;;74.33;26.80;;;2.30;99.90;;;;;;4790274;29;20746;-76
2022/11/27 09:13:54;;;;;;;86.40;29.37;;;2.40;99.90;;;;;;4788859;30;20224;-76
2022/11/27 09:16:21;;;;;;;80.80;27.97;;;2.40;99.90;;;;;;4789023;30;20204;-78
2022/11/27 09:18:51;;;;;;;77.63;28.80;;;2.60;99.90;;;;;;4788856;29;20338;-78
2022/11/27 09:21:20;;;;;;;80.13;27.80;;;2.70;99.90;;;;;;4789943;29;20205;-76
2022/11/27 09:23:51;;;;;;;80.37;27.77;;;2.70;99.90;;;;;;4788972;29;20204;-75
2022/11/27 09:26:18;;;;;;;76.60;28.03;;;2.70;99.90;;;;;;4790192;29;20209;-78
2022/11/27 09:28:45;;;;;;;72.00;27.23;;;2.70;99.90;;;;;;4789134;30;20217;-77
2022/11/27 09:31:13;;;;;;;69.77;27.13;;;2.70;99.90;;;;;;4788660;29;20212;-76
2022/11/27 09:33:41;;;;;;;73.90;28.57;;;2.70;99.90;;;;;;4790428;29;20232;-77
2022/11/27 09:36:11;;;;;;;76.47;28.63;;;2.70;99.90;;;;;;4791479;29;20200;-75
2022/11/27 09:38:38;;;;;;;76.90;29.13;;;2.70;99.90;;;;;;4807367;29;20208;-77
2022/11/27 09:41:14;;;;;;;71.13;28.13;;;2.70;99.90;;;;;;4808031;29;20207;-78
2022/11/27 09:43:57;;;;;;;72.80;27.20;;;2.70;99.90;;;;;;4791426;29;20558;-75
2022/11/27 09:46:51;;;;;;;72.57;27.63;;;2.80;99.90;;;;;;4791210;29;20211;-76
2022/11/27 09:49:40;;;;;;;73.13;28.10;;;2.80;99.90;;;;;;4805058;29;20282;-79
2022/11/27 09:52:37;;;;;;;78.43;27.30;;;2.80;99.90;;;;;;4806609;29;20223;-74
2022/11/27 09:55:25;;;;;;;76.13;27.77;;;3.00;99.90;;;;;;4791349;29;20207;-78
2022/11/27 09:58:04;;;;;;;82.33;28.87;;;3.00;99.90;;;;;;4806240;29;20208;-79
2022/11/27 10:00:32;;;;;;;76.87;28.10;;;3.00;99.90;;;;;;4776589;29;20206;-75
2022/11/27 10:02:59;;;;;;;67.97;27.47;;;3.00;99.90;;;;;;4791190;29;20203;-78
2022/11/27 10:05:35;;;;;;;75.90;29.73;;;3.10;99.90;;;;;;4733442;30;20331;-76
2022/11/27 10:08:05;;;;;;;68.73;27.93;;;3.10;99.90;;;;;;4719461;30;20215;-75
2022/11/27 10:10:43;;;;;;;75.97;28.37;;;3.10;99.90;;;;;;4719451;30;20666;-74
2022/11/27 10:13:18;;;;;;;75.90;28.70;;;3.20;99.90;;;;;;4719215;30;20703;-74
2022/11/27 10:15:57;;;;;;;69.73;27.70;;;3.00;99.90;;;;;;4719066;30;20673;-74
2022/11/27 10:18:51;;;;;;;75.83;27.27;;;3.10;99.90;;;;;;4733732;30;20221;-77
2022/11/27 10:21:41;;;;;;;75.03;28.43;;;3.10;99.90;;;;;;4681696;30;20700;-73
2022/11/27 10:24:36;;;;;;;75.37;26.50;;;3.30;99.90;;;;;;4719739;30;20663;-75
2022/11/27 10:27:16;;;;;;;71.40;28.50;;;3.30;99.90;;;;;;4733407;30;20576;-74
2022/11/27 10:29:53;;;;;;;69.37;28.27;;;3.30;99.90;;;;;;4733579;30;20584;-75
2022/11/27 10:32:24;;;;;;;74.70;29.03;;;3.30;99.90;;;;;;4733570;30;20226;-79
2022/11/27 10:35:15;;;;;;;75.03;28.80;;;3.20;99.90;;;;;;4718502;30;20707;-75
2022/11/27 10:37:50;;;;;;;69.17;28.20;;;3.30;99.90;;;;;;4733396;30;20240;-73
2022/11/27 10:40:26;;;;;;;71.33;27.53;;;3.40;99.90;;;;;;4733586;30;20202;-72
2022/11/27 10:43:18;;;;;;;75.10;29.67;;;3.30;99.90;;;;;;4733558;30;20604;-74
2022/11/27 10:45:52;;;;;;;74.57;28.43;;;3.30;99.90;;;;;;4718666;30;20218;-75
2022/11/27 10:48:21;;;;;;;70.77;28.27;;;3.30;99.90;;;;;;4718623;30;20231;-73
2022/11/27 10:50:48;;;;;;;69.63;27.20;;;3.50;99.90;;;;;;4731994;30;20209;-74
2022/11/27 10:53:29;;;;;;;68.70;28.17;;;3.30;99.90;;;;;;4733515;30;20237;-80
2022/11/27 10:56:30;;;;;;;69.00;26.77;;;3.30;99.90;;;;;;4733160;30;20214;-80
2022/11/27 10:59:05;;;;;;;81.27;28.43;;;3.30;99.90;;;;;;4789832;29;20246;-77
2022/11/27 11:01:47;;;;;;;72.13;28.03;;;3.40;99.90;;;;;;4790193;29;20211;-80
2022/11/27 11:04:19;;;;;;;75.13;28.73;;;3.50;99.90;;;;;;4775252;29;20240;-80
2022/11/27 11:07:26;;;;;;;66.03;25.87;;;3.50;99.90;;;;;;4805187;29;20253;-80
2022/11/27 11:09:54;;;;;;;71.00;28.00;;;3.70;99.90;;;;;;4790344;29;20607;-76
2022/11/27 11:12:22;;;;;;;65.90;26.47;;;3.80;99.90;;;;;;4804921;29;20668;-74
2022/11/27 11:14:58;;;;;;;61.77;27.20;;;3.80;99.90;;;;;;4789607;29;20199;-76
2022/11/27 11:17:36;;;;;;;64.07;26.43;;;3.90;99.90;;;;;;4789961;29;20216;-74
2022/11/27 11:20:23;;;;;;;66.73;27.33;;;3.90;99.90;;;;;;4805224;29;20265;-70
2022/11/27 11:22:50;;;;;;;60.50;26.53;;;3.90;99.90;;;;;;4804704;29;20666;-82
2022/11/27 11:25:20;;;;;;;69.60;27.33;;;3.90;99.90;;;;;;4805976;29;20238;-84
2022/11/27 11:27:49;;;;;;;62.50;27.13;;;3.90;99.90;;;;;;4790131;29;20199;-81
2022/11/27 11:30:27;;;;;;;60.20;25.90;;;3.90;99.90;;;;;;4806238;29;20206;-79
2022/11/27 11:33:02;;;;;;;66.00;26.83;;;3.90;99.90;;;;;;4804471;29;20703;-74
2022/11/27 11:35:34;;;;;;;66.63;26.03;;;3.80;99.90;;;;;;4789452;29;20235;-74
2022/11/27 11:38:14;;;;;;;67.17;25.97;;;3.90;99.90;;;;;;4789381;29;20202;-73
2022/11/27 11:40:44;;;;;;;62.60;25.20;;;4.00;99.90;;;;;;4789783;29;20715;-79
2022/11/27 11:43:32;;;;;;;61.23;25.97;;;4.10;99.90;;;;;;4789480;29;20219;-79
2022/11/27 11:46:18;;;;;;;63.03;26.43;;;4.10;99.90;;;;;;4774941;29;20209;-74
2022/11/27 11:48:53;;;;;;;63.70;26.00;;;4.00;99.90;;;;;;4774679;29;20669;-74
2022/11/27 11:51:52;;;;;;;64.50;26.40;;;3.90;99.90;;;;;;4789529;29;20637;-77
2022/11/27 11:54:48;;;;;;;61.77;25.33;;;4.00;99.90;;;;;;4732646;30;20721;-76
2022/11/27 11:57:41;;;;;;;61.77;25.37;;;4.00;99.90;;;;;;4732474;30;20198;-77
2022/11/27 12:00:13;;;;;;;63.17;25.73;;;3.90;99.90;;;;;;4732484;30;20212;-80
2022/11/27 12:03:00;;;;;;;64.83;25.30;;;3.90;99.90;;;;;;4719479;30;20217;-77
2022/11/27 12:05:59;;;;;;;73.50;30.85;;;3.90;99.90;;;;;;4735332;30;20460;-79
2022/11/27 12:08:29;;;;;;;64.37;26.63;;;4.00;99.90;;;;;;4736151;30;20264;-79
2022/11/27 12:11:10;;;;;;;60.27;25.57;;;4.10;99.90;;;;;;4736119;30;20786;-78
2022/11/27 12:13:44;;;;;;;61.87;25.43;;;4.20;99.90;;;;;;4706955;30;20231;-79
2022/11/27 12:16:30;;;;;;;59.90;25.07;;;4.30;99.90;;;;;;4735642;30;20301;-80
2022/11/27 12:19:05;;;;;;;64.43;25.97;;;4.30;99.90;;;;;;4735674;30;20206;-82
2022/11/27 12:21:59;;;;;;;61.23;26.13;;;4.30;99.90;;;;;;4722343;30;20206;-81
2022/11/27 12:24:46;;;;;;;57.43;25.60;;;4.30;99.90;;;;;;4721264;30;20224;-81
2022/11/27 12:27:18;;;;;;;61.17;25.20;;;4.40;99.90;;;;;;4721213;30;20208;-81
2022/11/27 12:30:07;;;;;;;61.17;25.00;;;4.30;99.90;;;;;;4736053;30;20208;-81
2022/11/27 12:32:59;;;;;;;59.93;24.53;;;4.40;99.90;;;;;;4767814;30;20320;-77
2022/11/27 12:35:35;;;;;;;58.13;24.77;;;4.40;99.90;;;;;;4752345;30;20324;-79
2022/11/27 12:38:32;;;;;;;63.30;25.40;;;4.30;99.90;;;;;;4737902;30;20285;-81
2022/11/27 12:41:31;;;;;;;58.87;24.77;;;4.40;99.90;;;;;;4737636;30;20338;-78
2022/11/27 12:44:01;;;;;;;58.27;24.80;;;4.50;99.90;;;;;;4737877;30;20232;-79
2022/11/27 12:46:49;;;;;;;59.23;24.83;;;4.50;99.90;;;;;;4770231;30;20245;-77
2022/11/27 12:49:41;;;;;;;61.47;24.93;;;4.50;99.90;;;;;;4772159;30;20205;-81
2022/11/27 12:52:30;;;;;;;59.47;24.63;;;4.50;99.90;;;;;;4786445;30;20619;-77
2022/11/27 12:55:07;;;;;;;55.13;23.87;;;4.50;99.90;;;;;;4770965;30;20244;-76
2022/11/27 12:58:05;;;;;;;52.97;23.40;;;4.50;99.90;;;;;;4785949;30;20205;-74
2022/11/27 13:00:38;;;;;;;58.17;24.83;;;4.50;99.90;;;;;;4770828;30;20209;-75
2022/11/27 13:03:49;;;;;;;55.83;24.13;;;4.50;99.90;;;;;;4787372;29;20211;-76